Time;durP1;ratioP1;P1;durP2;ratioP2;P2;SDS_P1;SDS_P2;PMS_P1;PMS_P2;Temp;Humidity;BMP_temperature;BMP_pressure;BME280_temperature;BME280_humidity;BME280_pressure;Samples;Min_cycle;Max_cycle;Signal;HPM_P1;HPM_P2
2022/08/09 00:00:38;;;;;;;7.60;4.67;;;24.20;58.90;;;24.76;46.11;95103.94;5001706;28;20452;-60
2022/08/09 00:03:05;;;;;;;4.70;4.00;;;24.20;59.10;;;24.70;46.21;95106.44;4997324;28;20481;-59
2022/08/09 00:05:32;;;;;;;6.77;3.70;;;24.10;59.20;;;24.64;45.41;95107.34;5000766;28;20484;-58
2022/08/09 00:08:00;;;;;;;7.03;4.80;;;24.00;59.20;;;24.58;45.67;95108.22;4997915;28;20479;-60
2022/08/09 00:10:27;;;;;;;9.53;4.70;;;24.00;59.40;;;24.52;45.85;95109.06;5001459;28;20503;-59
2022/08/09 00:12:55;;;;;;;4.30;3.90;;;23.90;59.40;;;24.43;46.43;95100.47;4998478;28;20555;-60
2022/08/09 00:15:23;;;;;;;4.97;4.20;;;23.80;60.10;;;24.37;46.19;95105.91;5002320;28;20453;-58
2022/08/09 00:17:50;;;;;;;4.63;3.67;;;23.80;59.50;;;24.32;46.57;95110.09;4995954;28;20489;-60
2022/08/09 00:20:17;;;;;;;4.40;4.00;;;23.70;59.50;;;24.26;46.86;95105.59;4998738;28;21013;-59
2022/08/09 00:22:44;;;;;;;6.80;4.13;;;23.70;59.80;;;24.21;46.55;95107.28;5002195;28;20504;-59
2022/08/09 00:25:12;;;;;;;6.47;4.30;;;23.60;59.70;;;24.16;46.79;95110.63;4998403;28;20452;-59
2022/08/09 00:27:39;;;;;;;6.00;4.60;;;23.60;60.00;;;24.10;46.62;95106.94;5000318;28;20481;-59
2022/08/09 00:30:09;;;;;;;7.77;3.73;;;23.50;60.20;;;24.07;46.73;95111.94;4998967;28;20966;-58
2022/08/09 00:32:36;;;;;;;6.23;4.47;;;23.50;60.30;;;24.06;46.85;95107.59;4997978;28;20489;-59
2022/08/09 00:35:05;;;;;;;7.23;4.67;;;23.40;60.50;;;24.04;46.61;95107.81;4998987;28;20457;-59
2022/08/09 00:37:32;;;;;;;4.40;4.00;;;23.40;60.60;;;24.03;47.56;95111.56;4998273;28;20489;-60
2022/08/09 00:40:00;;;;;;;7.07;4.17;;;23.40;60.80;;;24.01;47.20;95112.81;5001230;28;21029;-60
2022/08/09 00:42:27;;;;;;;6.67;4.20;;;23.40;61.00;;;24.00;47.71;95117.38;4999776;28;20473;-59
2022/08/09 00:44:55;;;;;;;4.30;3.93;;;23.40;61.20;;;23.97;46.93;95112.44;5000372;28;20544;-59
2022/08/09 00:47:23;;;;;;;4.90;4.30;;;23.30;61.20;;;23.93;47.13;95117.38;5000994;28;20952;-57
2022/08/09 00:49:50;;;;;;;8.53;4.60;;;23.30;61.30;;;23.91;47.61;95115.97;5001113;28;20544;-59
2022/08/09 00:52:18;;;;;;;8.53;4.47;;;23.30;61.30;;;23.88;47.71;95109.16;5001327;28;20995;-61
2022/08/09 00:54:47;;;;;;;6.33;4.43;;;23.30;61.50;;;23.85;47.06;95112.28;5002589;28;20523;-61
2022/08/09 00:57:14;;;;;;;4.20;3.83;;;23.20;61.30;;;23.82;47.25;95120.75;5002043;28;20933;-58
2022/08/09 00:59:42;;;;;;;5.30;4.30;;;23.20;61.40;;;23.75;47.74;95117.28;5001543;28;20462;-60
2022/08/09 01:02:10;;;;;;;4.20;3.80;;;23.20;61.60;;;23.75;47.55;95122.66;4999766;28;20916;-59
2022/08/09 01:04:47;;;;;;;7.90;4.60;;;23.20;61.90;;;23.73;48.35;95117.50;5003065;28;20462;-59
2022/08/09 01:07:19;;;;;;;8.07;4.13;;;23.10;62.40;;;23.73;48.26;95120.19;4999690;28;20861;-59
2022/08/09 01:09:52;;;;;;;7.03;4.17;;;23.10;63.20;;;23.73;48.56;95122.84;5000168;28;20514;-59
2022/08/09 01:12:24;;;;;;;9.83;4.27;;;23.10;63.10;;;23.72;48.74;95131.97;4999416;28;20496;-59
2022/08/09 01:14:59;;;;;;;5.30;4.80;;;23.10;63.00;;;23.72;48.64;95123.91;4998611;28;20508;-60
2022/08/09 01:17:29;;;;;;;6.97;4.53;;;23.10;63.20;;;23.71;48.02;95134.88;5000411;28;21063;-58
2022/08/09 01:20:02;;;;;;;8.93;3.60;;;23.10;62.80;;;23.67;48.17;95128.28;4995752;28;20438;-61
2022/08/09 01:23:11;;;;;;;4.90;4.40;;;23.10;63.10;;;23.62;48.57;95121.72;5004366;28;20528;-59
2022/08/09 01:25:55;;;;;;;10.50;4.10;;;23.00;63.10;;;23.61;48.96;95121.94;4999977;28;20460;-58
2022/08/09 01:28:24;;;;;;;6.30;4.33;;;23.00;63.10;;;23.59;48.22;95121.28;5000870;28;20462;-59
2022/08/09 01:30:52;;;;;;;8.00;4.00;;;23.00;63.10;;;23.57;48.41;95112.66;5001049;28;20516;-58
2022/08/09 01:33:20;;;;;;;6.47;4.20;;;23.00;63.10;;;23.57;48.95;95118.81;5001673;28;20801;-60
2022/08/09 01:35:50;;;;;;;5.80;3.53;;;23.00;63.80;;;23.59;49.08;95116.78;4999529;28;20525;-58
2022/08/09 01:38:20;;;;;;;8.63;4.93;;;23.00;64.00;;;23.61;48.59;95114.69;5002159;28;20581;-60
2022/08/09 01:40:56;;;;;;;6.60;4.30;;;23.00;64.10;;;23.63;49.02;95111.78;4999148;28;20512;-59
2022/08/09 01:43:25;;;;;;;5.20;3.87;;;23.00;64.70;;;23.66;49.33;95107.84;5001321;28;20877;-60
2022/08/09 01:45:52;;;;;;;4.97;4.27;;;23.00;65.00;;;23.68;49.57;95108.44;5002504;28;20846;-58
2022/08/09 01:48:19;;;;;;;8.37;4.17;;;23.00;65.10;;;23.67;49.25;95098.75;5003548;28;20485;-58
2022/08/09 01:50:50;;;;;;;4.60;4.20;;;23.10;64.80;;;23.66;49.14;95094.44;5000166;28;20454;-57
2022/08/09 01:53:17;;;;;;;6.20;3.90;;;23.10;65.60;;;23.67;49.56;95098.75;5010942;28;20516;-59
2022/08/09 01:55:45;;;;;;;5.80;4.63;;;23.10;64.90;;;23.67;49.82;95096.06;5000804;28;20447;-58
2022/08/09 01:58:12;;;;;;;9.73;5.10;;;23.10;65.00;;;23.70;49.43;95103.69;5003826;28;20516;-60
2022/08/09 02:00:42;;;;;;;8.87;5.10;;;23.10;65.20;;;23.73;49.67;95104.06;4995655;28;20516;-60
2022/08/09 02:03:09;;;;;;;10.13;5.90;;;23.10;65.50;;;23.75;49.35;95111.91;5006704;28;20470;-59
2022/08/09 02:05:36;;;;;;;10.07;5.17;;;23.10;65.40;;;23.78;50.06;95103.41;5003762;28;20532;-59
2022/08/09 02:08:06;;;;;;;6.47;5.83;;;23.20;65.60;;;23.78;49.89;95093.50;5003369;28;20469;-59
2022/08/09 02:10:37;;;;;;;5.10;4.60;;;23.20;65.90;;;23.78;50.18;95095.34;5001715;28;20536;-60
2022/08/09 02:13:06;;;;;;;4.70;4.30;;;23.20;66.00;;;23.78;50.22;95087.28;5000664;28;20559;-61
2022/08/09 02:15:35;;;;;;;10.53;5.30;;;23.20;66.00;;;23.76;50.44;95087.50;5002156;28;20593;-60
2022/08/09 02:18:04;;;;;;;4.77;4.40;;;23.10;66.10;;;23.75;49.95;95091.25;5002140;28;20500;-58
2022/08/09 02:20:31;;;;;;;10.37;4.93;;;23.10;66.30;;;23.71;50.37;95087.34;4997661;28;20537;-59
2022/08/09 02:23:14;;;;;;;5.60;4.10;;;23.10;66.60;;;23.72;50.44;95093.53;5001471;28;21041;-59
2022/08/09 02:25:42;;;;;;;4.40;4.20;;;23.10;66.40;;;23.69;50.51;95092.13;5004263;28;20987;-61
2022/08/09 02:28:15;;;;;;;6.70;3.90;;;23.10;66.40;;;23.68;49.86;95092.34;5000285;28;20556;-58
2022/08/09 02:30:44;;;;;;;5.57;3.80;;;23.10;66.40;;;23.69;50.16;95102.06;5003645;28;20453;-59
2022/08/09 02:33:15;;;;;;;8.30;4.33;;;23.10;66.40;;;23.66;50.43;95105.97;5004042;28;20478;-58
2022/08/09 02:35:43;;;;;;;5.60;4.00;;;23.10;66.40;;;23.61;50.71;95106.63;4999518;28;20547;-58
2022/08/09 02:38:10;;;;;;;5.00;3.97;;;23.00;66.90;;;23.61;49.58;95108.50;5000263;28;21059;-60
2022/08/09 02:40:38;;;;;;;10.03;4.23;;;23.00;66.40;;;23.59;49.79;95097.97;5001659;28;20552;-60
2022/08/09 02:43:05;;;;;;;10.47;3.90;;;23.00;66.50;;;23.58;49.74;95099.00;4998293;28;20563;-59
2022/08/09 02:45:35;;;;;;;4.50;4.20;;;23.00;66.50;;;23.57;49.86;95105.41;5002465;28;20966;-60
2022/08/09 02:48:05;;;;;;;10.40;3.83;;;23.00;66.80;;;23.54;50.12;95105.81;5000268;28;20539;-58
2022/08/09 02:50:37;;;;;;;5.20;4.70;;;23.00;66.60;;;23.49;50.49;95102.97;4999195;28;20517;-59
2022/08/09 02:53:07;;;;;;;4.93;4.43;;;22.90;66.60;;;23.43;49.87;95101.16;5002294;28;20919;-58
2022/08/09 02:55:35;;;;;;;5.00;4.13;;;22.90;66.80;;;23.39;50.29;95105.28;5002162;28;20445;-59
2022/08/09 02:58:02;;;;;;;6.23;4.37;;;22.80;67.20;;;23.32;50.59;95107.19;5000553;28;20567;-60
2022/08/09 03:00:29;;;;;;;8.60;4.40;;;22.70;67.10;;;23.26;50.32;95101.63;4999748;28;20458;-61
2022/08/09 03:02:56;;;;;;;4.10;3.80;;;22.70;67.10;;;23.21;50.07;95106.81;5000710;28;20483;-59
2022/08/09 03:05:24;;;;;;;7.50;4.20;;;22.60;67.10;;;23.15;50.61;95101.50;5004242;28;20528;-61
2022/08/09 03:07:52;;;;;;;4.57;4.07;;;22.60;67.20;;;23.08;50.54;95114.88;5006013;28;21010;-60
2022/08/09 03:10:20;;;;;;;5.90;4.00;;;22.50;67.10;;;22.99;50.45;95125.03;5008173;28;20923;-58
2022/08/09 03:12:47;;;;;;;8.13;4.50;;;22.50;67.20;;;22.89;50.55;95121.97;5007466;28;20560;-58
2022/08/09 03:15:15;;;;;;;13.80;5.27;;;22.40;67.40;;;22.79;50.87;95113.50;5000941;28;21028;-58
2022/08/09 03:17:42;;;;;;;14.73;4.70;;;22.30;67.80;;;22.73;50.85;95117.88;5001185;28;20473;-59
2022/08/09 03:20:10;;;;;;;11.80;4.27;;;22.20;67.90;;;22.66;51.12;95117.88;4996031;28;20500;-61
2022/08/09 03:22:39;;;;;;;4.80;4.40;;;22.10;68.90;;;22.60;51.37;95123.25;5005005;28;20473;-59
2022/08/09 03:25:09;;;;;;;10.83;5.40;;;22.10;68.60;;;22.55;51.51;95119.34;4998932;28;20519;-62
2022/08/09 03:27:36;;;;;;;4.73;4.27;;;22.00;68.80;;;22.54;51.91;95120.38;5000364;28;20473;-58
2022/08/09 03:30:04;;;;;;;4.93;4.53;;;22.00;69.20;;;22.56;51.47;95117.50;5000605;28;20589;-58
2022/08/09 03:32:33;;;;;;;4.40;4.10;;;22.00;69.00;;;22.54;51.50;95119.53;4996201;28;20593;-61
2022/08/09 03:35:00;;;;;;;8.07;4.77;;;22.00;70.10;;;22.51;52.11;95123.47;5004525;28;20568;-61
2022/08/09 03:37:27;;;;;;;5.33;4.63;;;22.00;69.50;;;22.49;52.13;95122.03;5002305;28;20524;-61
2022/08/09 03:39:55;;;;;;;6.10;4.20;;;21.90;69.90;;;22.48;52.32;95126.59;5000907;28;20493;-58
2022/08/09 03:42:23;;;;;;;10.37;4.77;;;21.90;70.00;;;22.46;52.52;95120.59;5000607;28;20477;-60
2022/08/09 03:44:50;;;;;;;6.70;4.60;;;21.90;70.20;;;22.47;52.01;95124.09;5000539;28;20956;-57
2022/08/09 03:47:18;;;;;;;19.90;5.63;;;21.90;70.50;;;22.45;52.07;95120.78;5002686;28;20478;-59
2022/08/09 03:49:45;;;;;;;8.20;4.40;;;21.90;70.40;;;22.41;52.08;95120.38;4999854;28;20540;-59
2022/08/09 03:52:12;;;;;;;10.73;4.70;;;21.90;70.30;;;22.37;52.32;95125.34;5001716;28;20475;-58
2022/08/09 03:54:39;;;;;;;12.77;5.03;;;21.80;70.60;;;22.36;52.71;95122.88;4999487;28;20477;-59
2022/08/09 03:57:08;;;;;;;12.70;5.63;;;21.80;71.00;;;22.36;52.66;95129.06;5000396;28;20859;-59
2022/08/09 03:59:37;;;;;;;11.47;5.03;;;21.80;71.20;;;22.37;52.35;95125.34;5000300;28;20494;-58
2022/08/09 04:02:04;;;;;;;9.10;4.53;;;21.80;71.40;;;22.34;52.59;95125.75;5000122;28;20481;-58
2022/08/09 04:04:31;;;;;;;6.90;5.60;;;21.80;71.30;;;22.37;52.76;95121.84;4999790;28;20987;-57
2022/08/09 04:06:59;;;;;;;17.43;5.83;;;21.80;71.70;;;22.40;52.90;95131.31;5000888;28;20474;-58
2022/08/09 04:09:26;;;;;;;14.53;6.03;;;21.80;71.90;;;22.40;52.53;95134.81;5000297;28;20461;-59
2022/08/09 04:12:42;;;;;;;6.57;5.97;;;21.80;71.80;;;22.44;53.77;95136.06;4999517;28;20564;-59
2022/08/09 04:15:12;;;;;;;7.50;5.20;;;21.80;72.30;;;22.48;53.31;95131.94;4997319;28;20450;-60
2022/08/09 04:17:39;;;;;;;6.23;5.27;;;21.90;73.00;;;22.55;53.33;95138.09;4999626;28;20474;-60
2022/08/09 04:20:08;;;;;;;26.47;5.80;;;21.90;73.20;;;22.63;53.50;95130.88;4999858;28;20583;-59
2022/08/09 04:22:35;;;;;;;13.87;6.07;;;22.00;73.50;;;22.67;53.19;95132.94;5000775;28;20505;-59
2022/08/09 04:25:02;;;;;;;6.20;5.60;;;22.10;73.90;;;22.71;53.19;95142.22;4998604;28;20458;-61
2022/08/09 04:27:30;;;;;;;9.70;6.63;;;22.10;73.50;;;22.75;53.22;95137.25;5000164;28;20552;-59
2022/08/09 04:29:57;;;;;;;11.10;5.57;;;22.10;73.60;;;22.78;53.32;95131.47;4997192;28;20537;-59
2022/08/09 04:32:27;;;;;;;8.13;5.30;;;22.20;73.90;;;22.84;53.81;95135.19;5001150;28;20978;-60
2022/08/09 04:34:55;;;;;;;6.83;5.30;;;22.30;74.70;;;22.89;53.81;95138.88;5001402;28;20884;-59
2022/08/09 04:37:22;;;;;;;11.63;5.83;;;22.30;75.40;;;22.94;53.85;95148.16;4999465;28;20537;-60
2022/08/09 04:39:49;;;;;;;7.93;6.20;;;22.40;75.80;;;22.99;53.68;95148.34;5001978;28;20605;-59
2022/08/09 04:42:16;;;;;;;13.10;7.00;;;22.40;75.80;;;23.03;54.35;95146.91;4996994;28;20478;-59
2022/08/09 04:44:43;;;;;;;22.90;7.77;;;22.40;75.80;;;23.08;54.04;95147.94;5002777;28;20537;-59
2022/08/09 04:47:10;;;;;;;16.00;7.83;;;22.50;76.00;;;23.12;54.02;95153.72;4999194;28;20470;-58
2022/08/09 04:49:39;;;;;;;20.90;10.13;;;22.50;76.00;;;23.19;54.11;95157.22;4998918;28;20469;-58
2022/08/09 04:52:06;;;;;;;14.40;7.50;;;22.60;76.90;;;23.24;54.01;95152.03;5001313;28;20496;-60
2022/08/09 04:54:34;;;;;;;18.70;7.67;;;22.70;77.30;;;23.29;54.82;95156.75;5005778;28;20524;-60
2022/08/09 04:57:01;;;;;;;13.33;7.17;;;22.70;77.40;;;23.34;53.88;95151.56;5000462;28;20559;-57
2022/08/09 04:59:28;;;;;;;12.67;7.13;;;22.70;77.20;;;23.39;53.85;95154.44;4999788;28;21025;-58
2022/08/09 05:01:55;;;;;;;13.90;7.03;;;22.80;77.50;;;23.43;54.09;95155.66;4999855;28;20477;-59
2022/08/09 05:04:22;;;;;;;10.67;6.17;;;22.80;77.40;;;23.50;54.31;95154.81;5001312;28;20450;-60
2022/08/09 05:06:51;;;;;;;13.30;6.23;;;22.90;76.90;;;23.55;53.76;95155.00;4999741;28;20537;-59
2022/08/09 05:09:18;;;;;;;15.00;6.37;;;22.90;76.30;;;23.60;52.92;95153.31;4998807;28;20454;-60
2022/08/09 05:11:45;;;;;;;6.73;5.60;;;23.00;76.40;;;23.67;53.39;95157.81;4999724;28;20466;-58
2022/08/09 05:14:13;;;;;;;13.23;7.10;;;23.10;75.50;;;23.74;52.54;95167.50;4997893;28;20536;-59
2022/08/09 05:16:40;;;;;;;8.20;5.83;;;23.10;75.30;;;23.81;52.33;95167.44;4997399;28;20470;-60
2022/08/09 05:19:07;;;;;;;14.83;5.70;;;23.20;75.00;;;23.88;52.58;95159.41;4998805;28;20825;-58
2022/08/09 05:21:34;;;;;;;8.70;5.63;;;23.30;74.60;;;23.92;52.40;95160.59;5005159;28;20469;-58
2022/08/09 05:24:04;;;;;;;10.23;5.47;;;23.30;74.60;;;23.97;52.30;95166.97;5001379;28;20455;-59
2022/08/09 05:26:34;;;;;;;11.57;6.40;;;23.40;74.30;;;24.04;51.50;95171.50;5003858;28;20564;-59
2022/08/09 05:29:01;;;;;;;13.93;6.37;;;23.40;73.90;;;24.13;51.73;95165.63;5001897;28;20549;-60
2022/08/09 05:31:29;;;;;;;6.10;5.60;;;23.50;74.40;;;24.28;52.28;95169.88;4999806;28;20465;-58
2022/08/09 05:33:56;;;;;;;11.67;5.43;;;23.60;74.30;;;24.44;51.83;95171.22;5005476;28;20946;-60
2022/08/09 05:36:23;;;;;;;7.40;4.80;;;23.80;73.60;;;24.59;51.01;95169.03;5004305;28;21002;-58
2022/08/09 05:38:50;;;;;;;16.47;7.13;;;23.90;73.30;;;24.77;50.86;95168.28;5001060;28;20515;-59
2022/08/09 05:41:19;;;;;;;10.30;4.90;;;24.00;73.10;;;25.00;51.11;95177.56;5000446;28;20474;-59
2022/08/09 05:43:46;;;;;;;7.50;5.50;;;24.30;72.90;;;25.24;50.37;95175.88;5000944;28;20454;-60
2022/08/09 05:46:14;;;;;;;11.10;5.57;;;24.50;72.50;;;25.49;50.32;95180.38;5003003;28;20469;-59
2022/08/09 05:48:41;;;;;;;11.20;6.00;;;24.70;71.60;;;25.72;49.96;95175.09;5002566;28;20453;-60
2022/08/09 05:51:08;;;;;;;7.87;6.07;;;24.90;71.50;;;25.97;49.05;95179.53;5003230;28;20487;-58
2022/08/09 05:53:36;;;;;;;12.70;6.50;;;25.20;71.00;;;26.25;48.78;95183.53;5002209;28;20449;-59
2022/08/09 05:56:03;;;;;;;5.77;4.60;;;25.40;70.00;;;26.52;47.79;95185.81;5001879;28;20461;-58
2022/08/09 05:58:32;;;;;;;12.43;5.40;;;25.70;68.90;;;26.76;47.74;95176.72;5003684;28;20703;-59
2022/08/09 06:00:59;;;;;;;10.60;6.03;;;25.90;68.00;;;26.95;47.00;95176.59;5000795;28;20600;-59
2022/08/09 06:03:26;;;;;;;13.80;5.13;;;26.10;66.90;;;27.15;46.83;95174.34;5003433;28;20469;-58
2022/08/09 06:05:54;;;;;;;6.30;5.20;;;26.40;66.30;;;27.36;46.03;95175.66;5003837;28;20453;-58
2022/08/09 06:08:21;;;;;;;5.77;5.13;;;26.60;65.30;;;27.60;45.68;95180.19;5004715;28;20599;-57
2022/08/09 06:10:48;;;;;;;6.83;5.27;;;26.80;64.70;;;27.83;45.42;95176.59;4997799;28;20832;-59
2022/08/09 06:13:16;;;;;;;7.20;6.00;;;26.90;64.20;;;28.00;45.23;95177.50;5003267;28;20465;-58
2022/08/09 06:15:45;;;;;;;16.87;5.90;;;27.20;63.50;;;28.16;45.15;95173.19;5000999;28;20553;-59
2022/08/09 06:18:12;;;;;;;12.03;4.90;;;27.30;62.70;;;28.36;44.84;95171.91;5003908;28;20469;-58
2022/08/09 06:20:40;;;;;;;6.93;5.77;;;27.50;62.40;;;28.55;43.97;95175.19;4997991;28;20607;-58
2022/08/09 06:23:08;;;;;;;6.17;5.10;;;27.70;61.80;;;28.75;43.50;95172.03;5001028;28;20909;-59
2022/08/09 06:25:35;;;;;;;9.57;5.60;;;27.90;60.70;;;28.96;43.52;95171.28;5004219;28;20465;-58
2022/08/09 06:28:02;;;;;;;8.00;5.43;;;28.10;60.30;;;29.19;42.60;95169.44;5000258;28;21051;-58
2022/08/09 06:30:29;;;;;;;9.30;4.60;;;28.30;59.90;;;29.32;42.50;95173.69;4999909;28;20507;-58
2022/08/09 06:32:58;;;;;;;4.77;4.37;;;28.50;59.00;;;29.41;42.24;95174.91;4994933;28;20520;-60
2022/08/09 06:35:25;;;;;;;15.33;5.30;;;28.60;58.50;;;29.56;42.38;95166.16;4999645;28;20454;-58
2022/08/09 06:37:53;;;;;;;10.87;4.70;;;28.80;58.40;;;29.73;41.72;95170.66;4998493;28;20473;-61
2022/08/09 06:40:20;;;;;;;11.03;4.80;;;28.90;58.20;;;29.95;42.09;95163.38;5001578;28;20840;-58
2022/08/09 06:42:48;;;;;;;5.23;4.83;;;29.00;57.90;;;30.10;40.91;95162.72;5002249;28;20528;-58
2022/08/09 06:45:15;;;;;;;4.87;4.03;;;29.30;57.00;;;30.22;40.40;95170.69;5001642;28;21027;-59
2022/08/09 06:47:42;;;;;;;12.13;4.73;;;29.40;56.50;;;30.32;40.79;95164.53;5000381;28;20481;-59
2022/08/09 06:50:11;;;;;;;4.37;4.07;;;29.50;56.00;;;30.48;40.26;95169.06;5002924;28;20449;-58
2022/08/09 06:52:44;;;;;;;12.73;4.97;;;29.60;56.10;;;30.67;40.18;95166.78;5004526;28;20541;-60
2022/08/09 06:55:11;;;;;;;15.50;5.00;;;29.80;56.00;;;30.82;39.50;95174.22;4998825;28;20442;-59
2022/08/09 06:57:39;;;;;;;4.43;4.13;;;29.90;55.50;;;30.91;39.39;95169.16;4999587;28;20477;-60
2022/08/09 07:00:08;;;;;;;5.07;3.90;;;30.10;55.00;;;30.98;39.00;95172.47;5004717;28;20492;-60
2022/08/09 07:02:35;;;;;;;5.80;4.10;;;30.10;54.40;;;31.02;38.89;95164.63;5001541;28;20468;-60
2022/08/09 07:05:03;;;;;;;28.77;5.20;;;30.20;54.30;;;31.12;39.10;95166.59;5000944;28;20446;-59
2022/08/09 07:07:31;;;;;;;5.13;3.33;;;30.30;54.00;;;31.27;39.30;95166.66;4999539;28;20214;-59
2022/08/09 07:09:59;;;;;;;6.10;4.00;;;30.40;53.80;;;31.42;38.43;95172.19;5002798;28;20225;-59
2022/08/09 07:12:26;;;;;;;7.33;3.90;;;30.60;53.60;;;31.58;38.90;95169.56;5000641;28;20214;-58
2022/08/09 07:14:53;;;;;;;11.43;4.50;;;30.70;53.40;;;31.83;38.62;95165.31;5001786;28;20202;-58
2022/08/09 07:17:21;;;;;;;9.13;4.30;;;30.90;52.90;;;32.07;37.26;95171.09;5000670;28;20218;-59
2022/08/09 07:19:48;;;;;;;4.20;3.90;;;31.10;52.20;;;32.30;37.34;95164.34;4996489;28;20731;-58
2022/08/09 07:22:15;;;;;;;4.10;3.80;;;31.40;51.90;;;32.52;37.41;95167.66;5000693;28;20225;-58
2022/08/09 07:24:44;;;;;;;5.97;5.03;;;31.60;51.80;;;32.71;36.77;95156.25;4998415;28;20202;-58
2022/08/09 07:27:12;;;;;;;6.70;4.40;;;31.80;51.40;;;32.83;36.86;95156.78;5002203;28;20587;-58
2022/08/09 07:29:40;;;;;;;12.07;4.07;;;31.90;51.00;;;32.92;36.38;95164.41;5001790;28;20215;-59
2022/08/09 07:32:07;;;;;;;4.90;4.40;;;32.00;50.60;;;33.08;36.15;95163.31;4998570;28;20230;-59
2022/08/09 07:34:35;;;;;;;9.00;4.05;;;32.10;50.20;;;33.29;35.91;95157.81;5000794;28;20205;-60
2022/08/09 07:37:02;;;;;;;10.20;4.35;;;32.30;49.90;;;33.50;35.81;95159.41;5000837;28;20772;-60
2022/08/09 07:39:29;;;;;;;5.30;4.15;;;32.50;49.90;;;33.76;35.43;95162.06;5000325;28;20285;-59
2022/08/09 07:41:58;;;;;;;7.78;4.60;;;32.80;49.30;;;34.00;35.19;95158.66;4995930;28;20253;-60
2022/08/09 07:44:25;;;;;;;3.85;3.55;;;33.00;48.60;;;34.18;34.17;95163.47;4999682;28;20667;-60
2022/08/09 07:46:53;;;;;;;6.50;3.80;;;33.20;48.20;;;34.41;34.73;95156.53;5002054;28;20229;-59
2022/08/09 07:49:20;;;;;;;10.13;4.45;;;33.40;47.90;;;34.65;33.49;95156.59;5000392;28;20296;-59
2022/08/09 07:51:48;;;;;;;7.43;4.18;;;33.70;47.40;;;34.88;33.23;95159.72;5000561;28;20300;-60
2022/08/09 07:54:15;;;;;;;4.22;3.80;;;33.90;47.10;;;35.11;33.34;95160.88;5003651;28;20206;-61
2022/08/09 07:56:43;;;;;;;7.75;4.10;;;34.10;46.70;;;35.32;33.76;95157.97;5000103;28;20310;-59
2022/08/09 07:59:11;;;;;;;7.57;4.18;;;34.30;46.30;;;35.56;33.34;95168.13;4997820;28;20202;-59
2022/08/09 08:01:39;;;;;;;3.90;3.15;;;34.60;45.80;;;35.74;31.56;95164.59;5000107;28;20238;-59
2022/08/09 08:04:06;;;;;;;11.60;3.33;;;34.80;44.90;;;35.92;32.22;95157.56;4996880;28;20195;-58
2022/08/09 08:06:33;;;;;;;8.23;4.22;;;35.00;44.40;;;36.09;31.49;95165.25;4998621;28;20223;-59
2022/08/09 08:09:00;;;;;;;9.45;3.72;;;35.10;43.80;;;36.24;31.14;95151.34;5005135;28;20198;-61
2022/08/09 08:11:28;;;;;;;3.80;3.55;;;35.30;43.60;;;36.43;31.20;95148.63;4998934;28;20425;-57
2022/08/09 08:13:55;;;;;;;5.25;3.45;;;35.50;43.40;;;36.66;30.23;95148.03;4999824;28;20646;-59
2022/08/09 08:16:23;;;;;;;3.55;3.35;;;35.70;42.50;;;36.85;30.22;95148.00;5000044;28;20229;-60
2022/08/09 08:18:51;;;;;;;11.35;4.00;;;35.90;42.60;;;37.02;30.31;95141.94;4999508;28;20194;-58
2022/08/09 08:21:18;;;;;;;10.13;3.60;;;36.10;42.20;;;37.10;29.43;95144.00;5001178;28;20253;-60
2022/08/09 08:23:45;;;;;;;5.00;3.00;;;36.20;41.70;;;37.24;29.87;95139.34;4998394;28;20214;-58
2022/08/09 08:26:12;;;;;;;5.60;3.60;;;36.30;41.60;;;37.46;29.78;95141.44;4997721;28;20794;-59
2022/08/09 08:28:40;;;;;;;3.72;3.42;;;36.50;41.50;;;37.57;28.98;95135.72;4999981;28;20605;-61
2022/08/09 08:31:07;;;;;;;6.40;3.13;;;36.70;40.70;;;37.55;28.69;95140.69;4999339;28;20203;-59
2022/08/09 08:33:35;;;;;;;7.72;3.53;;;36.70;40.10;;;37.59;29.02;95134.28;4998500;28;20194;-60
2022/08/09 08:36:03;;;;;;;8.80;3.58;;;36.70;40.40;;;37.77;28.48;95129.03;4993916;28;20210;-60
2022/08/09 08:38:30;;;;;;;5.60;3.17;;;36.80;40.00;;;37.95;28.05;95135.50;4995459;28;20217;-59
2022/08/09 08:40:58;;;;;;;3.05;2.85;;;37.00;39.50;;;38.16;27.86;95127.63;4998923;28;20229;-60
2022/08/09 08:43:26;;;;;;;3.15;2.85;;;37.20;39.30;;;38.34;27.63;95137.66;4999901;28;20225;-59
2022/08/09 08:45:55;;;;;;;8.52;3.35;;;37.40;38.80;;;38.40;26.66;95123.81;4998735;28;20292;-59
2022/08/09 08:48:23;;;;;;;4.05;2.83;;;37.50;38.10;;;38.46;26.78;95123.38;5000871;28;20195;-60
2022/08/09 08:50:52;;;;;;;9.18;3.50;;;37.50;37.30;;;38.46;26.13;95114.31;4997359;28;20202;-57
2022/08/09 08:53:19;;;;;;;6.47;2.53;;;37.50;36.50;;;38.43;26.38;95107.50;5006509;28;20198;-60
2022/08/09 08:55:46;;;;;;;3.42;2.80;;;37.60;36.50;;;38.54;26.08;95108.88;5005019;28;20195;-60
2022/08/09 08:58:13;;;;;;;5.43;3.20;;;37.60;36.50;;;38.68;26.05;95113.53;5004036;28;20221;-59
2022/08/09 09:00:41;;;;;;;2.65;2.45;;;37.80;36.20;;;38.81;25.96;95101.66;5003704;28;20240;-58
2022/08/09 09:03:08;;;;;;;5.45;2.88;;;37.90;35.80;;;38.92;25.66;95100.25;5001620;28;20237;-60
2022/08/09 09:05:36;;;;;;;5.45;2.80;;;38.00;35.40;;;39.02;24.84;95099.16;5006343;28;20198;-58
2022/08/09 09:08:05;;;;;;;5.47;2.97;;;38.10;34.50;;;39.16;24.34;95101.84;5003726;28;20313;-59
2022/08/09 09:10:32;;;;;;;7.85;2.85;;;38.20;33.80;;;39.28;23.47;95103.22;5001414;28;20256;-59
2022/08/09 09:12:59;;;;;;;2.38;2.17;;;38.30;33.10;;;39.21;23.62;95098.97;5005309;28;20226;-58
2022/08/09 09:15:27;;;;;;;3.08;1.52;;;38.30;32.00;;;39.09;22.36;95093.25;5002078;28;20257;-60
2022/08/09 09:17:54;;;;;;;7.40;3.00;;;38.20;30.40;;;38.86;22.31;95090.50;5000261;28;20225;-62
2022/08/09 09:20:21;;;;;;;2.95;2.25;;;38.10;30.60;;;38.89;22.72;95098.13;5003372;28;20276;-63
2022/08/09 09:22:54;;;;;;;2.03;1.80;;;38.00;30.90;;;38.97;21.44;95087.50;5000262;28;20718;-59
2022/08/09 09:25:37;;;;;;;4.88;2.30;;;38.00;29.80;;;38.86;21.03;95079.50;5004528;28;20297;-59
2022/08/09 09:28:05;;;;;;;7.80;2.40;;;38.00;29.50;;;38.77;22.37;95077.84;4999252;28;20238;-60
2022/08/09 09:30:33;;;;;;;2.97;2.20;;;37.90;30.60;;;38.88;22.17;95084.69;5004310;28;20199;-60
2022/08/09 09:33:08;;;;;;;9.40;2.78;;;38.00;30.10;;;38.88;20.70;95080.00;5003293;28;20227;-61
2022/08/09 09:35:50;;;;;;;2.55;1.85;;;38.00;29.30;;;38.79;21.35;95081.09;5004684;28;20281;-59
2022/08/09 09:38:18;;;;;;;2.63;2.30;;;37.90;29.30;;;38.75;21.23;95080.91;5001158;28;20663;-62
2022/08/09 09:40:46;;;;;;;13.25;2.30;;;37.80;29.00;;;38.75;21.19;95080.91;5005534;28;20714;-60
2022/08/09 09:43:20;;;;;;;3.10;2.10;;;37.80;29.30;;;38.83;20.93;95077.41;5002851;28;20273;-61
2022/08/09 09:45:49;;;;;;;2.10;1.65;;;37.90;29.60;;;39.02;21.05;95079.91;5002205;28;20280;-59
2022/08/09 09:48:16;;;;;;;3.90;2.13;;;38.00;29.30;;;39.15;20.90;95088.41;5004054;28;20234;-61
2022/08/09 09:50:45;;;;;;;7.15;1.90;;;38.10;28.70;;;39.21;20.37;95073.38;5004509;28;20210;-60
2022/08/09 09:53:15;;;;;;;11.77;1.75;;;38.20;28.60;;;39.31;20.87;95067.59;5003548;28;20733;-59
2022/08/09 09:55:55;;;;;;;2.95;2.00;;;38.30;28.50;;;39.41;19.11;95074.75;5005110;28;20226;-60
2022/08/09 09:58:23;;;;;;;7.10;1.85;;;38.40;27.40;;;39.43;20.18;95061.50;5003680;28;20202;-59
2022/08/09 10:00:51;;;;;;;2.40;2.20;;;38.50;28.30;;;39.45;20.39;95068.28;5001434;28;20226;-58
2022/08/09 10:03:19;;;;;;;5.28;1.85;;;38.50;28.30;;;39.45;20.12;95061.97;5003260;28;20202;-61
2022/08/09 10:05:58;;;;;;;2.45;1.80;;;38.50;27.60;;;39.42;19.54;95057.91;5004457;28;20613;-60
2022/08/09 10:08:25;;;;;;;2.38;1.73;;;38.50;27.40;;;39.46;20.47;95055.34;4998792;28;20246;-60
2022/08/09 10:10:54;;;;;;;8.98;2.20;;;38.50;28.10;;;39.42;19.85;95071.66;5000873;28;20293;-61
2022/08/09 10:13:21;;;;;;;5.53;2.17;;;38.50;27.50;;;39.17;19.93;95059.47;4999375;28;20280;-60
2022/08/09 10:15:49;;;;;;;2.45;1.70;;;38.30;27.50;;;38.75;20.42;95061.66;4997709;28;20669;-61
2022/08/09 10:18:16;;;;;;;6.60;1.95;;;38.00;27.70;;;38.53;20.19;95054.22;5001777;28;20334;-63
2022/08/09 10:20:44;;;;;;;3.05;1.30;;;37.80;27.90;;;38.41;20.15;95045.72;5000016;28;20236;-59
2022/08/09 10:23:17;;;;;;;2.30;1.63;;;37.60;27.50;;;38.26;19.76;95058.72;5001129;28;20214;-63